메인 페이지
METAR-TAF:

METAR-TAF

공항 :

헨더슨, 네바다, 미국

위도: 35-58-35N, 경도: 115-07-58W, 고도: 749m

현재 날씨관측

예보는 4분 전, 22:56시(UTC)에 발표되었습니다.
서남서7kt, 순간 최대 풍속 15kt
온도 30°C
습도 15%
기압 1011 hPa
시정: 16.1km
맑음

METAR: KHND 272256Z 25007G15KT 10SM CLR 30/01 A2984 RMK AO2 SLP081 T03000011 $

시각: 16:00 (23:00 UTC)

예보

예보는 2 시간 1분 전, 20:59시(UTC)에 발표되었습니다.
예보 대상 시간: 27일 21시부터 28일 18시까지 (UTC)
여러 방향의 바람 6kt
시정: 10km
고도 10000ft 상공 구름 조금
고도 15000ft 상공 구름 보통
27일 2200시부터 (UTC)
서남서7kt
시정: 10km
고도 10000ft 상공 구름 보통
고도 15000ft 상공 구름 보통
28일 0300시부터 (UTC)
남남서9kt
시정: 10km
고도 12000ft 상공 구름 조금
고도 20000ft 상공 구름 보통
28일 1600시부터 (UTC)
여러 방향의 바람 6kt
시정: 10km
고도 12000ft 상공 구름 조금

TAF: KHND 272059Z 2721/2818 VRB06KT P6SM FEW100 SCT150 FM272200 24007KT P6SM SCT100 SCT150 FM280300 20009KT P6SM FEW120 SCT200 FM281600 VRB06KT P6SM FEW120

4,000개 이상의 공항 관측 자료 및 예보 (METAR 및 TAF 보고).

지도상에서 검색 가능한 기상관측소가 노란 점과 빨간 점으로 표시되어 있습니다.

기상관측소 명을 보려면 표시 위로 마우스를 이동하세요.

날씨 관측과 예보를 보려면 클릭하세요.

지도 변경 : 확대하려면 엑스 표시가 있는 녹색 버튼, 축소하려면 빼기 표시가 있는 녹색 버튼, 다음 페이지의 지도를 보려면 녹색 화살표를 클릭하세요.


METAR-TAF: